sensor_id;sensor_type;location;lat;lon;timestamp;pressure;altitude;pressure_sealevel;temperature;humidity
50774;BME280;36745;48.544;8.918;2023-02-20T00:00:58;98480.28;;;7.66;93.17
50774;BME280;36745;48.544;8.918;2023-02-20T00:04:18;98477.13;;;7.57;93.31
50774;BME280;36745;48.544;8.918;2023-02-20T00:07:39;98480.69;;;7.54;93.44
50774;BME280;36745;48.544;8.918;2023-02-20T00:10:59;98477.13;;;7.68;93.22
50774;BME280;36745;48.544;8.918;2023-02-20T00:14:18;98480.28;;;7.66;93.18
50774;BME280;36745;48.544;8.918;2023-02-20T00:17:38;98491.66;;;7.65;92.85
50774;BME280;36745;48.544;8.918;2023-02-20T00:20:58;98491.28;;;7.66;92.60
50774;BME280;36745;48.544;8.918;2023-02-20T00:24:18;98485.75;;;7.73;92.39
50774;BME280;36745;48.544;8.918;2023-02-20T00:27:38;98473.19;;;7.72;92.20
50774;BME280;36745;48.544;8.918;2023-02-20T00:30:57;98473.22;;;7.65;92.27
50774;BME280;36745;48.544;8.918;2023-02-20T00:34:17;98466.56;;;7.59;92.46
50774;BME280;36745;48.544;8.918;2023-02-20T00:37:37;98459.50;;;7.65;92.27
50774;BME280;36745;48.544;8.918;2023-02-20T00:40:57;98455.19;;;7.71;91.66
50774;BME280;36745;48.544;8.918;2023-02-20T00:44:16;98461.84;;;7.74;91.43
50774;BME280;36745;48.544;8.918;2023-02-20T00:47:36;98466.56;;;7.59;92.04
50774;BME280;36745;48.544;8.918;2023-02-20T00:50:56;98466.16;;;7.64;92.38
50774;BME280;36745;48.544;8.918;2023-02-20T00:54:16;98465.38;;;7.74;91.83
50774;BME280;36745;48.544;8.918;2023-02-20T00:57:35;98468.53;;;7.66;91.89
50774;BME280;36745;48.544;8.918;2023-02-20T01:00:55;98488.53;;;7.66;92.01
50774;BME280;36745;48.544;8.918;2023-02-20T01:04:15;98491.25;;;7.63;92.07
50774;BME280;36745;48.544;8.918;2023-02-20T01:07:35;98493.59;;;7.68;91.88
50774;BME280;36745;48.544;8.918;2023-02-20T01:10:55;98500.28;;;7.63;92.12
50774;BME280;36745;48.544;8.918;2023-02-20T01:14:14;98505.38;;;7.65;92.12
50774;BME280;36745;48.544;8.918;2023-02-20T01:17:34;98496.75;;;7.63;92.19
50774;BME280;36745;48.544;8.918;2023-02-20T01:20:54;98487.34;;;7.60;92.42
50774;BME280;36745;48.544;8.918;2023-02-20T01:24:15;98488.53;;;7.55;92.26
50774;BME280;36745;48.544;8.918;2023-02-20T01:27:35;98486.16;;;7.54;92.57
50774;BME280;36745;48.544;8.918;2023-02-20T01:30:54;98477.94;;;7.54;92.30
50774;BME280;36745;48.544;8.918;2023-02-20T01:34:15;98480.28;;;7.52;92.02
50774;BME280;36745;48.544;8.918;2023-02-20T01:37:35;98476.75;;;7.44;92.01
50774;BME280;36745;48.544;8.918;2023-02-20T01:40:55;98471.66;;;7.43;92.25
50774;BME280;36745;48.544;8.918;2023-02-20T01:44:20;98479.50;;;7.48;92.42
50774;BME280;36745;48.544;8.918;2023-02-20T01:47:40;98469.28;;;7.41;92.57
50774;BME280;36745;48.544;8.918;2023-02-20T01:51:00;98474.38;;;7.36;92.85
50774;BME280;36745;48.544;8.918;2023-02-20T01:54:21;98465.78;;;7.34;92.66
50774;BME280;36745;48.544;8.918;2023-02-20T01:57:47;98457.94;;;7.32;92.93
50774;BME280;36745;48.544;8.918;2023-02-20T02:01:09;98464.59;;;7.28;92.83
50774;BME280;36745;48.544;8.918;2023-02-20T02:04:30;98459.09;;;7.35;92.77
50774;BME280;36745;48.544;8.918;2023-02-20T02:07:51;98457.56;;;7.34;92.76
50774;BME280;36745;48.544;8.918;2023-02-20T02:11:14;98455.56;;;7.31;92.72
50774;BME280;36745;48.544;8.918;2023-02-20T02:14:35;98459.88;;;7.32;92.79
50774;BME280;36745;48.544;8.918;2023-02-20T02:28:56;98436.34;;;7.24;92.32
50774;BME280;36745;48.544;8.918;2023-02-20T02:40:07;98434.78;;;7.19;91.87
50774;BME280;36745;48.544;8.918;2023-02-20T02:43:49;98428.13;;;7.13;91.83
50774;BME280;36745;48.544;8.918;2023-02-20T02:47:20;98428.53;;;7.11;91.85
50774;BME280;36745;48.544;8.918;2023-02-20T02:50:43;98419.50;;;7.07;91.87
50774;BME280;36745;48.544;8.918;2023-02-20T02:54:17;98421.47;;;7.03;91.66
50774;BME280;36745;48.544;8.918;2023-02-20T02:57:38;98425.78;;;7.18;91.40
50774;BME280;36745;48.544;8.918;2023-02-20T03:01:00;98426.97;;;7.10;91.18
50774;BME280;36745;48.544;8.918;2023-02-20T03:04:21;98423.44;;;7.10;91.35
50774;BME280;36745;48.544;8.918;2023-02-20T03:07:44;98434.81;;;7.12;91.22
50774;BME280;36745;48.544;8.918;2023-02-20T03:14:37;98434.03;;;7.11;90.85
50774;BME280;36745;48.544;8.918;2023-02-20T03:18:32;98427.75;;;7.14;90.74
50774;BME280;36745;48.544;8.918;2023-02-20T03:21:55;98424.59;;;7.02;90.53
50774;BME280;36745;48.544;8.918;2023-02-20T03:25:33;98427.75;;;7.00;90.53
50774;BME280;36745;48.544;8.918;2023-02-20T03:29:02;98439.84;;;6.92;90.25
50774;BME280;36745;48.544;8.918;2023-02-20T03:32:26;98430.06;;;6.88;90.35
50774;BME280;36745;48.544;8.918;2023-02-20T03:36:11;98433.91;;;6.62;90.12
50774;BME280;36745;48.544;8.918;2023-02-20T03:39:56;98435.88;;;6.65;90.32
50774;BME280;36745;48.544;8.918;2023-02-20T03:43:37;98433.84;;;6.41;90.04
50774;BME280;36745;48.544;8.918;2023-02-20T03:47:00;98433.41;;;6.31;90.25
50774;BME280;36745;48.544;8.918;2023-02-20T03:50:21;98427.91;;;6.24;90.74
50774;BME280;36745;48.544;8.918;2023-02-20T03:53:59;98432.91;;;6.12;90.88
50774;BME280;36745;48.544;8.918;2023-02-20T03:57:32;98426.22;;;6.02;90.85
50774;BME280;36745;48.544;8.918;2023-02-20T04:00:54;98427.34;;;5.94;91.03
50774;BME280;36745;48.544;8.918;2023-02-20T04:04:19;98426.88;;;5.85;91.17
50774;BME280;36745;48.544;8.918;2023-02-20T04:07:47;98433.44;;;5.70;91.17
50774;BME280;36745;48.544;8.918;2023-02-20T04:11:20;98422.00;;;5.57;91.50
50774;BME280;36745;48.544;8.918;2023-02-20T04:14:42;98412.97;;;5.49;91.63
50774;BME280;36745;48.544;8.918;2023-02-20T04:18:12;98414.84;;;5.38;91.71
50774;BME280;36745;48.544;8.918;2023-02-20T04:21:38;98410.47;;;5.30;91.60
50774;BME280;36745;48.544;8.918;2023-02-20T04:25:02;98409.22;;;5.21;92.17
50774;BME280;36745;48.544;8.918;2023-02-20T04:28:25;98412.75;;;5.21;92.42
50774;BME280;36745;48.544;8.918;2023-02-20T04:31:45;98418.16;;;5.14;92.55
50774;BME280;36745;48.544;8.918;2023-02-20T04:35:05;98408.00;;;5.15;92.49
50774;BME280;36745;48.544;8.918;2023-02-20T04:38:24;98406.44;;;5.14;92.63
50774;BME280;36745;48.544;8.918;2023-02-20T04:41:44;98407.19;;;5.07;92.89
50774;BME280;36745;48.544;8.918;2023-02-20T04:45:04;98407.53;;;5.02;92.99
50774;BME280;36745;48.544;8.918;2023-02-20T04:48:24;98402.38;;;4.97;93.04
50774;BME280;36745;48.544;8.918;2023-02-20T04:51:44;98399.25;;;4.95;92.99
50774;BME280;36745;48.544;8.918;2023-02-20T04:55:04;98404.63;;;4.88;92.86
50774;BME280;36745;48.544;8.918;2023-02-20T04:58:24;98407.63;;;4.76;92.94
50774;BME280;36745;48.544;8.918;2023-02-20T05:01:43;98411.47;;;4.68;93.10
50774;BME280;36745;48.544;8.918;2023-02-20T05:05:15;98419.94;;;4.59;93.64
50774;BME280;36745;48.544;8.918;2023-02-20T05:08:35;98419.59;;;4.60;93.40
50774;BME280;36745;48.544;8.918;2023-02-20T05:11:55;98416.03;;;4.56;93.42
50774;BME280;36745;48.544;8.918;2023-02-20T05:15:15;98415.13;;;4.45;93.60
50774;BME280;36745;48.544;8.918;2023-02-20T05:18:34;98421.34;;;4.42;93.57
50774;BME280;36745;48.544;8.918;2023-02-20T05:21:54;98421.59;;;4.30;93.80
50774;BME280;36745;48.544;8.918;2023-02-20T05:25:32;98410.19;;;4.21;94.01
50774;BME280;36745;48.544;8.918;2023-02-20T05:28:52;98422.56;;;4.15;94.26
50774;BME280;36745;48.544;8.918;2023-02-20T05:32:13;98427.94;;;4.08;94.19
50774;BME280;36745;48.544;8.918;2023-02-20T05:35:33;98419.16;;;3.92;93.78
50774;BME280;36745;48.544;8.918;2023-02-20T05:38:54;98428.59;;;3.98;94.38
50774;BME280;36745;48.544;8.918;2023-02-20T05:42:14;98421.91;;;3.95;93.02
50774;BME280;36745;48.544;8.918;2023-02-20T05:45:34;98418.97;;;3.77;93.93
50774;BME280;36745;48.544;8.918;2023-02-20T05:48:54;98414.22;;;3.74;94.48
50774;BME280;36745;48.544;8.918;2023-02-20T05:52:14;98408.41;;;3.76;93.88
50774;BME280;36745;48.544;8.918;2023-02-20T05:55:34;98399.16;;;3.54;93.96
50774;BME280;36745;48.544;8.918;2023-02-20T05:58:54;98406.19;;;3.55;94.60
50774;BME280;36745;48.544;8.918;2023-02-20T06:06:18;98401.34;;;3.45;94.79
50774;BME280;36745;48.544;8.918;2023-02-20T06:09:43;98401.66;;;3.40;94.74
50774;BME280;36745;48.544;8.918;2023-02-20T06:13:03;98404.78;;;3.42;95.01
50774;BME280;36745;48.544;8.918;2023-02-20T06:16:25;98407.88;;;3.41;95.31
50774;BME280;36745;48.544;8.918;2023-02-20T06:19:45;98413.72;;;3.39;94.47
50774;BME280;36745;48.544;8.918;2023-02-20T06:23:05;98415.81;;;3.23;93.98
50774;BME280;36745;48.544;8.918;2023-02-20T06:26:25;98414.84;;;3.12;94.60
50774;BME280;36745;48.544;8.918;2023-02-20T06:29:48;98427.97;;;3.06;94.67
50774;BME280;36745;48.544;8.918;2023-02-20T06:33:07;98418.03;;;2.94;94.46
50774;BME280;36745;48.544;8.918;2023-02-20T06:36:33;98416.47;;;2.93;95.42
50774;BME280;36745;48.544;8.918;2023-02-20T06:39:53;98411.56;;;3.03;95.54
50774;BME280;36745;48.544;8.918;2023-02-20T06:43:13;98423.94;;;2.97;95.01
50774;BME280;36745;48.544;8.918;2023-02-20T06:46:33;98421.59;;;2.99;95.46
50774;BME280;36745;48.544;8.918;2023-02-20T06:49:53;98428.03;;;3.10;95.27
50774;BME280;36745;48.544;8.918;2023-02-20T06:53:12;98435.34;;;3.06;95.67
50774;BME280;36745;48.544;8.918;2023-02-20T06:56:33;98427.78;;;2.95;95.34
50774;BME280;36745;48.544;8.918;2023-02-20T06:59:53;98434.22;;;3.07;95.62
50774;BME280;36745;48.544;8.918;2023-02-20T07:03:13;98439.72;;;3.10;95.78
50774;BME280;36745;48.544;8.918;2023-02-20T07:06:33;98450.34;;;3.19;95.36
50774;BME280;36745;48.544;8.918;2023-02-20T07:09:53;98448.31;;;3.12;95.01
50774;BME280;36745;48.544;8.918;2023-02-20T07:13:13;98455.13;;;3.03;94.73
50774;BME280;36745;48.544;8.918;2023-02-20T07:16:33;98451.22;;;3.00;95.28
50774;BME280;36745;48.544;8.918;2023-02-20T07:19:52;98452.16;;;2.88;95.19
50774;BME280;36745;48.544;8.918;2023-02-20T07:23:12;98447.56;;;2.92;95.78
50774;BME280;36745;48.544;8.918;2023-02-20T07:26:32;98455.03;;;2.95;95.94
50774;BME280;36745;48.544;8.918;2023-02-20T07:29:53;98444.97;;;3.00;95.91
50774;BME280;36745;48.544;8.918;2023-02-20T07:33:13;98452.97;;;3.12;95.88
50774;BME280;36745;48.544;8.918;2023-02-20T07:36:33;98456.25;;;3.21;96.28
50774;BME280;36745;48.544;8.918;2023-02-20T07:39:53;98453.22;;;3.26;96.13
50774;BME280;36745;48.544;8.918;2023-02-20T07:43:13;98456.63;;;3.46;96.66
50774;BME280;36745;48.544;8.918;2023-02-20T07:46:32;98447.06;;;3.55;96.26
50774;BME280;36745;48.544;8.918;2023-02-20T07:49:52;98450.66;;;3.63;97.28
50774;BME280;36745;48.544;8.918;2023-02-20T07:53:16;98452.09;;;3.79;97.87
50774;BME280;36745;48.544;8.918;2023-02-20T07:56:36;98456.66;;;3.98;97.24
50774;BME280;36745;48.544;8.918;2023-02-20T07:59:56;98449.75;;;4.08;96.97
50774;BME280;36745;48.544;8.918;2023-02-20T08:03:16;98447.53;;;4.17;97.23
50774;BME280;36745;48.544;8.918;2023-02-20T08:06:36;98444.72;;;4.43;97.04
50774;BME280;36745;48.544;8.918;2023-02-20T08:09:56;98448.78;;;4.53;97.15
50774;BME280;36745;48.544;8.918;2023-02-20T08:13:16;98436.06;;;4.68;97.52
50774;BME280;36745;48.544;8.918;2023-02-20T08:16:37;98436.81;;;5.05;97.27
50774;BME280;36745;48.544;8.918;2023-02-20T08:19:56;98431.63;;;5.40;97.28
50774;BME280;36745;48.544;8.918;2023-02-20T08:23:18;98428.81;;;5.77;96.64
50774;BME280;36745;48.544;8.918;2023-02-20T08:26:46;98431.69;;;5.99;95.53
50774;BME280;36745;48.544;8.918;2023-02-20T08:30:08;98425.13;;;6.21;95.07
50774;BME280;36745;48.544;8.918;2023-02-20T08:33:28;98409.56;;;6.39;94.68
50774;BME280;36745;48.544;8.918;2023-02-20T08:36:48;98413.50;;;6.49;93.52
50774;BME280;36745;48.544;8.918;2023-02-20T08:40:09;98404.19;;;6.64;93.43
50774;BME280;36745;48.544;8.918;2023-02-20T08:43:28;98410.50;;;6.89;93.61
50774;BME280;36745;48.544;8.918;2023-02-20T08:46:50;98407.38;;;7.05;92.87
50774;BME280;36745;48.544;8.918;2023-02-20T08:50:17;98399.53;;;7.25;91.77
50774;BME280;36745;48.544;8.918;2023-02-20T08:53:38;98400.34;;;7.29;91.01
50774;BME280;36745;48.544;8.918;2023-02-20T08:56:57;98391.72;;;7.44;90.87
50774;BME280;36745;48.544;8.918;2023-02-20T09:00:18;98389.31;;;7.64;88.29
50774;BME280;36745;48.544;8.918;2023-02-20T09:03:37;98380.28;;;7.67;87.73
50774;BME280;36745;48.544;8.918;2023-02-20T09:07:00;98377.53;;;7.67;86.01
50774;BME280;36745;48.544;8.918;2023-02-20T09:10:20;98383.03;;;7.67;86.51
50774;BME280;36745;48.544;8.918;2023-02-20T09:13:44;98373.97;;;7.84;85.15
50774;BME280;36745;48.544;8.918;2023-02-20T09:17:04;98380.63;;;7.90;82.95
50774;BME280;36745;48.544;8.918;2023-02-20T09:20:24;98372.00;;;7.92;83.80
50774;BME280;36745;48.544;8.918;2023-02-20T09:23:44;98371.19;;;8.09;84.32
50774;BME280;36745;48.544;8.918;2023-02-20T09:27:04;98363.25;;;8.25;83.95
50774;BME280;36745;48.544;8.918;2023-02-20T09:30:25;98368.72;;;8.29;82.20
50774;BME280;36745;48.544;8.918;2023-02-20T09:33:45;98370.28;;;8.37;82.26
50774;BME280;36745;48.544;8.918;2023-02-20T09:37:05;98361.19;;;8.51;82.23
50774;BME280;36745;48.544;8.918;2023-02-20T09:40:28;98355.59;;;8.68;81.67
50774;BME280;36745;48.544;8.918;2023-02-20T09:44:03;98360.59;;;8.84;80.81
50774;BME280;36745;48.544;8.918;2023-02-20T09:51:13;98357.38;;;8.93;79.49
50774;BME280;36745;48.544;8.918;2023-02-20T09:55:08;98361.16;;;9.13;78.56
50774;BME280;36745;48.544;8.918;2023-02-20T09:58:40;98347.00;;;9.14;78.50
50774;BME280;36745;48.544;8.918;2023-02-20T10:02:14;98339.84;;;9.24;76.50
50774;BME280;36745;48.544;8.918;2023-02-20T10:05:35;98340.09;;;9.40;76.48
50774;BME280;36745;48.544;8.918;2023-02-20T10:08:55;98333.69;;;9.54;76.44
50774;BME280;36745;48.544;8.918;2023-02-20T10:22:55;98311.81;;;9.74;73.36
50774;BME280;36745;48.544;8.918;2023-02-20T10:26:32;98314.84;;;9.83;72.91
50774;BME280;36745;48.544;8.918;2023-02-20T10:29:54;98314.38;;;9.91;72.86
50774;BME280;36745;48.544;8.918;2023-02-20T10:36:45;98313.34;;;10.12;71.29
50774;BME280;36745;48.544;8.918;2023-02-20T10:43:50;98312.72;;;10.31;71.00
50774;BME280;36745;48.544;8.918;2023-02-20T10:47:31;98300.78;;;10.41;71.20
50774;BME280;36745;48.544;8.918;2023-02-20T10:51:06;98297.25;;;10.68;72.30
50774;BME280;36745;48.544;8.918;2023-02-20T10:54:30;98288.44;;;10.76;70.70
50774;BME280;36745;48.544;8.918;2023-02-20T10:58:05;98289.84;;;10.88;69.26
50774;BME280;36745;48.544;8.918;2023-02-20T11:01:28;98286.59;;;10.93;69.57
50774;BME280;36745;48.544;8.918;2023-02-20T11:04:53;98287.28;;;11.01;67.46
50774;BME280;36745;48.544;8.918;2023-02-20T11:08:15;98285.53;;;11.10;67.71
50774;BME280;36745;48.544;8.918;2023-02-20T11:11:39;98276.38;;;11.13;66.76
50774;BME280;36745;48.544;8.918;2023-02-20T11:15:14;98273.50;;;11.20;67.54
50774;BME280;36745;48.544;8.918;2023-02-20T11:18:37;98265.41;;;11.33;66.68
50774;BME280;36745;48.544;8.918;2023-02-20T11:21:57;98266.75;;;11.45;65.87
50774;BME280;36745;48.544;8.918;2023-02-20T11:25:26;98265.63;;;11.62;66.15
50774;BME280;36745;48.544;8.918;2023-02-20T11:29:03;98258.31;;;11.75;65.60
50774;BME280;36745;48.544;8.918;2023-02-20T11:32:37;98251.94;;;11.78;65.26
50774;BME280;36745;48.544;8.918;2023-02-20T11:36:12;98253.66;;;12.28;65.45
50774;BME280;36745;48.544;8.918;2023-02-20T11:39:34;98235.78;;;13.58;66.62
50774;BME280;36745;48.544;8.918;2023-02-20T11:42:54;98234.28;;;14.87;65.76
50774;BME280;36745;48.544;8.918;2023-02-20T11:46:21;98223.06;;;16.03;62.90
50774;BME280;36745;48.544;8.918;2023-02-20T11:49:41;98214.28;;;16.85;59.95
50774;BME280;36745;48.544;8.918;2023-02-20T11:53:03;98207.06;;;17.87;60.94
50774;BME280;36745;48.544;8.918;2023-02-20T11:56:23;98203.63;;;18.01;56.57
50774;BME280;36745;48.544;8.918;2023-02-20T11:59:50;98198.84;;;17.93;55.65
50774;BME280;36745;48.544;8.918;2023-02-20T12:03:34;98197.03;;;17.81;54.51
50774;BME280;36745;48.544;8.918;2023-02-20T12:06:54;98193.22;;;18.53;53.22
50774;BME280;36745;48.544;8.918;2023-02-20T12:13:55;98184.78;;;18.71;50.79
50774;BME280;36745;48.544;8.918;2023-02-20T12:25:33;98169.94;;;19.51;47.92
50774;BME280;36745;48.544;8.918;2023-02-20T12:29:04;98160.31;;;19.82;48.71
50774;BME280;36745;48.544;8.918;2023-02-20T12:36:22;98154.03;;;19.57;46.04
50774;BME280;36745;48.544;8.918;2023-02-20T12:47:31;98123.41;;;18.62;43.08
50774;BME280;36745;48.544;8.918;2023-02-20T12:51:03;98117.72;;;18.95;43.81
50774;BME280;36745;48.544;8.918;2023-02-20T12:58:08;98099.72;;;19.49;42.24
50774;BME280;36745;48.544;8.918;2023-02-20T13:01:33;98088.91;;;19.42;42.43
50774;BME280;36745;48.544;8.918;2023-02-20T13:04:59;98081.31;;;19.57;42.98
50774;BME280;36745;48.544;8.918;2023-02-20T13:08:32;98082.06;;;20.02;42.39
50774;BME280;36745;48.544;8.918;2023-02-20T13:12:01;98076.44;;;20.02;41.90
50774;BME280;36745;48.544;8.918;2023-02-20T13:18:55;98048.28;;;19.76;41.45
50774;BME280;36745;48.544;8.918;2023-02-20T13:22:17;98050.84;;;20.09;39.96
50774;BME280;36745;48.544;8.918;2023-02-20T13:25:40;98035.25;;;19.88;40.32
50774;BME280;36745;48.544;8.918;2023-02-20T13:29:18;98021.16;;;19.97;39.42
50774;BME280;36745;48.544;8.918;2023-02-20T13:32:37;98020.84;;;19.45;39.49
50774;BME280;36745;48.544;8.918;2023-02-20T13:35:58;98025.25;;;19.66;39.99
50774;BME280;36745;48.544;8.918;2023-02-20T13:42:37;98027.34;;;18.83;39.70
50774;BME280;36745;48.544;8.918;2023-02-20T13:53:07;98024.44;;;18.07;39.76
50774;BME280;36745;48.544;8.918;2023-02-20T13:56:45;98010.94;;;17.81;39.83
50774;BME280;36745;48.544;8.918;2023-02-20T14:03:38;98013.59;;;17.15;37.47
50774;BME280;36745;48.544;8.918;2023-02-20T14:06:58;98009.28;;;16.96;37.36
50774;BME280;36745;48.544;8.918;2023-02-20T14:10:31;98004.06;;;16.89;38.56
50774;BME280;36745;48.544;8.918;2023-02-20T14:13:52;98011.47;;;16.83;37.48
50774;BME280;36745;48.544;8.918;2023-02-20T14:17:15;98000.28;;;16.47;36.45
50774;BME280;36745;48.544;8.918;2023-02-20T14:20:38;97974.66;;;16.33;37.12
50774;BME280;36745;48.544;8.918;2023-02-20T14:24:20;98001.53;;;16.18;36.41
50774;BME280;36745;48.544;8.918;2023-02-20T14:27:40;97995.91;;;15.91;36.62
50774;BME280;36745;48.544;8.918;2023-02-20T14:31:24;97974.59;;;15.97;37.47
50774;BME280;36745;48.544;8.918;2023-02-20T14:38:18;97970.56;;;15.98;37.28
50774;BME280;36745;48.544;8.918;2023-02-20T14:41:59;97961.91;;;15.87;36.84
50774;BME280;36745;48.544;8.918;2023-02-20T14:45:23;97951.69;;;15.84;37.09
50774;BME280;36745;48.544;8.918;2023-02-20T14:48:47;97953.56;;;15.87;37.64
50774;BME280;36745;48.544;8.918;2023-02-20T14:55:29;97949.78;;;15.53;37.07
50774;BME280;36745;48.544;8.918;2023-02-20T14:58:49;97956.44;;;15.34;36.97
50774;BME280;36745;48.544;8.918;2023-02-20T15:02:29;97965.97;;;15.24;37.69
50774;BME280;36745;48.544;8.918;2023-02-20T15:05:49;97958.59;;;15.30;38.12
50774;BME280;36745;48.544;8.918;2023-02-20T15:09:10;97963.81;;;15.28;38.17
50774;BME280;36745;48.544;8.918;2023-02-20T15:12:35;97961.94;;;15.16;38.40
50774;BME280;36745;48.544;8.918;2023-02-20T15:16:25;97952.78;;;14.85;37.74
50774;BME280;36745;48.544;8.918;2023-02-20T15:19:46;97956.94;;;14.58;37.63
50774;BME280;36745;48.544;8.918;2023-02-20T15:23:23;97957.69;;;14.37;37.84
50774;BME280;36745;48.544;8.918;2023-02-20T15:26:44;97957.69;;;14.37;38.37
50774;BME280;36745;48.544;8.918;2023-02-20T15:30:14;97952.97;;;14.25;38.27
50774;BME280;36745;48.544;8.918;2023-02-20T15:33:40;97952.22;;;14.12;38.33
50774;BME280;36745;48.544;8.918;2023-02-20T15:37:11;97951.47;;;13.99;38.90
50774;BME280;36745;48.544;8.918;2023-02-20T15:40:33;97957.56;;;13.94;39.12
50774;BME280;36745;48.544;8.918;2023-02-20T15:43:53;97955.47;;;13.98;39.21
50774;BME280;36745;48.544;8.918;2023-02-20T15:47:13;97944.28;;;13.88;39.34
50774;BME280;36745;48.544;8.918;2023-02-20T15:50:33;97958.41;;;13.81;39.77
50774;BME280;36745;48.544;8.918;2023-02-20T15:53:55;97946.31;;;13.75;39.77
50774;BME280;36745;48.544;8.918;2023-02-20T15:57:15;97939.38;;;13.45;40.08
50774;BME280;36745;48.544;8.918;2023-02-20T16:00:36;97936.94;;;13.35;40.39
50774;BME280;36745;48.544;8.918;2023-02-20T16:03:56;97939.81;;;13.19;40.83
50774;BME280;36745;48.544;8.918;2023-02-20T16:07:18;97946.09;;;13.07;41.06
50774;BME280;36745;48.544;8.918;2023-02-20T16:10:38;97949.06;;;12.87;41.62
50774;BME280;36745;48.544;8.918;2023-02-20T16:13:59;97953.81;;;12.74;41.72
50774;BME280;36745;48.544;8.918;2023-02-20T16:17:23;97951.00;;;12.61;41.89
50774;BME280;36745;48.544;8.918;2023-02-20T16:20:43;97949.69;;;12.37;42.53
50774;BME280;36745;48.544;8.918;2023-02-20T16:24:03;97945.22;;;12.27;42.68
50774;BME280;36745;48.544;8.918;2023-02-20T16:27:25;97933.06;;;12.24;42.73
50774;BME280;36745;48.544;8.918;2023-02-20T16:30:46;97934.56;;;12.12;42.86
50774;BME280;36745;48.544;8.918;2023-02-20T16:34:07;97937.34;;;11.96;42.96
50774;BME280;36745;48.544;8.918;2023-02-20T16:37:27;97932.22;;;11.82;43.23
50774;BME280;36745;48.544;8.918;2023-02-20T16:40:47;97936.47;;;11.67;43.58
50774;BME280;36745;48.544;8.918;2023-02-20T16:44:41;97932.25;;;11.46;43.91
50774;BME280;36745;48.544;8.918;2023-02-20T16:48:01;97935.09;;;11.26;44.44
50774;BME280;36745;48.544;8.918;2023-02-20T16:51:21;97932.31;;;11.10;44.39
50774;BME280;36745;48.544;8.918;2023-02-20T16:54:44;97932.22;;;10.98;44.66
50774;BME280;36745;48.544;8.918;2023-02-20T16:58:04;97935.34;;;10.80;44.70
50774;BME280;36745;48.544;8.918;2023-02-20T17:01:24;97928.59;;;10.65;44.73
50774;BME280;36745;48.544;8.918;2023-02-20T17:04:44;97936.28;;;10.53;45.27
50774;BME280;36745;48.544;8.918;2023-02-20T17:08:05;97928.53;;;10.29;45.77
50774;BME280;36745;48.544;8.918;2023-02-20T17:11:24;97935.66;;;10.26;45.67
50774;BME280;36745;48.544;8.918;2023-02-20T17:14:45;97924.72;;;10.23;45.34
50774;BME280;36745;48.544;8.918;2023-02-20T17:18:05;97938.38;;;10.06;45.90
50774;BME280;36745;48.544;8.918;2023-02-20T17:21:25;97938.63;;;9.92;46.15
50774;BME280;36745;48.544;8.918;2023-02-20T17:24:45;97934.03;;;9.86;46.68
50774;BME280;36745;48.544;8.918;2023-02-20T17:28:05;97935.69;;;9.80;46.48
50774;BME280;36745;48.544;8.918;2023-02-20T17:31:25;97924.09;;;9.68;46.21
50774;BME280;36745;48.544;8.918;2023-02-20T17:34:45;97925.91;;;9.55;46.94
50774;BME280;36745;48.544;8.918;2023-02-20T17:38:04;97918.25;;;9.43;47.41
50774;BME280;36745;48.544;8.918;2023-02-20T17:41:24;97917.53;;;9.39;47.30
50774;BME280;36745;48.544;8.918;2023-02-20T17:44:44;97929.44;;;9.29;47.78
50774;BME280;36745;48.544;8.918;2023-02-20T17:48:04;97921.66;;;9.24;47.93
50774;BME280;36745;48.544;8.918;2023-02-20T17:51:27;97929.31;;;9.13;48.09
50774;BME280;36745;48.544;8.918;2023-02-20T17:54:49;97928.28;;;9.03;48.36
50774;BME280;36745;48.544;8.918;2023-02-20T17:58:09;97933.94;;;8.93;48.36
50774;BME280;36745;48.544;8.918;2023-02-20T18:01:29;97939.88;;;8.88;48.34
50774;BME280;36745;48.544;8.918;2023-02-20T18:04:49;97937.28;;;8.77;48.52
50774;BME280;36745;48.544;8.918;2023-02-20T18:08:09;97930.47;;;8.58;49.08
50774;BME280;36745;48.544;8.918;2023-02-20T18:11:29;97937.31;;;8.43;50.11
50774;BME280;36745;48.544;8.918;2023-02-20T18:14:49;97930.75;;;8.33;49.86
50774;BME280;36745;48.544;8.918;2023-02-20T18:18:10;97928.56;;;8.18;50.83
50774;BME280;36745;48.544;8.918;2023-02-20T18:21:30;97932.59;;;8.06;51.02
50774;BME280;36745;48.544;8.918;2023-02-20T18:24:50;97940.59;;;7.93;51.25
50774;BME280;36745;48.544;8.918;2023-02-20T18:28:10;97935.63;;;7.81;51.54
50774;BME280;36745;48.544;8.918;2023-02-20T18:31:30;97941.53;;;7.76;52.05
50774;BME280;36745;48.544;8.918;2023-02-20T18:34:50;97933.38;;;7.69;51.90
50774;BME280;36745;48.544;8.918;2023-02-20T18:38:10;97936.59;;;7.57;52.80
50774;BME280;36745;48.544;8.918;2023-02-20T18:41:30;97936.69;;;7.50;52.95
50774;BME280;36745;48.544;8.918;2023-02-20T18:44:56;97934.69;;;7.54;52.50
50774;BME280;36745;48.544;8.918;2023-02-20T18:48:19;97930.00;;;7.51;52.96
50774;BME280;36745;48.544;8.918;2023-02-20T18:51:40;97938.59;;;7.53;53.13
50774;BME280;36745;48.544;8.918;2023-02-20T18:55:01;97934.00;;;7.43;53.60
50774;BME280;36745;48.544;8.918;2023-02-20T18:58:20;97922.31;;;7.32;53.81
50774;BME280;36745;48.544;8.918;2023-02-20T19:01:41;97927.09;;;7.21;53.79
50774;BME280;36745;48.544;8.918;2023-02-20T19:05:01;97925.63;;;7.12;53.99
50774;BME280;36745;48.544;8.918;2023-02-20T19:08:20;97921.34;;;7.04;54.33
50774;BME280;36745;48.544;8.918;2023-02-20T19:11:40;97920.22;;;6.98;54.52
50774;BME280;36745;48.544;8.918;2023-02-20T19:15:00;97904.63;;;6.88;55.14
50774;BME280;36745;48.544;8.918;2023-02-20T19:18:22;97914.00;;;6.87;54.83
50774;BME280;36745;48.544;8.918;2023-02-20T19:21:42;97911.69;;;6.82;55.03
50774;BME280;36745;48.544;8.918;2023-02-20T19:25:02;97909.41;;;6.73;55.73
50774;BME280;36745;48.544;8.918;2023-02-20T19:28:22;97910.94;;;6.78;55.18
50774;BME280;36745;48.544;8.918;2023-02-20T19:31:41;97910.19;;;6.74;55.37
50774;BME280;36745;48.544;8.918;2023-02-20T19:35:02;97922.03;;;6.57;55.52
50774;BME280;36745;48.544;8.918;2023-02-20T19:38:22;97912.28;;;6.45;56.13
50774;BME280;36745;48.544;8.918;2023-02-20T19:41:42;97922.06;;;6.43;56.18
50774;BME280;36745;48.544;8.918;2023-02-20T19:45:02;97915.06;;;6.42;56.42